Time;durP1;ratioP1;P1;durP2;ratioP2;P2;SDS_P1;SDS_P2;PMS_P1;PMS_P2;Temp;Humidity;BMP_temperature;BMP_pressure;BME280_temperature;BME280_humidity;BME280_pressure;Samples;Min_cycle;Max_cycle;Signal;HPM_P1;HPM_P2
2023/01/30 00:00:17;;;;;;;;;;;;;;;0.18;54.89;101071.84;5397558;32;36547;-76
2023/01/30 00:03:19;;;;;;;;;;;;;;;0.60;53.20;101059.47;5415035;32;36567;-79
2023/01/30 00:06:21;;;;;;;;;;;;;;;0.89;52.24;101058.09;5402131;32;37193;-76
2023/01/30 00:09:23;;;;;;;;;;;;;;;0.08;53.72;101056.22;5391904;32;33308;-75
2023/01/30 00:12:25;;;;;;;;;;;;;;;0.20;54.21;101056.38;5410335;32;35337;-76
2023/01/30 00:15:26;;;;;;;;;;;;;;;0.33;54.03;101045.34;5373365;32;35803;-78
2023/01/30 00:18:29;;;;;;;;;;;;;;;1.32;51.69;101048.16;5407111;32;35717;-77
2023/01/30 00:21:31;;;;;;;;;;;;;;;0.60;53.52;101047.41;5383205;32;34368;-76
2023/01/30 00:24:33;;;;;;;;;;;;;;;-0.12;55.89;101046.44;5408519;32;34244;-75
2023/01/30 00:27:35;;;;;;;;;;;;;;;0.44;54.32;101043.75;5404571;32;35109;-77
2023/01/30 00:30:37;;;;;;;;;;;;;;;1.00;53.26;101042.69;5400352;32;34881;-78
2023/01/30 00:33:39;;;;;;;;;;;;;;;1.11;52.65;101042.78;5411113;32;35185;-76
2023/01/30 00:36:41;;;;;;;;;;;;;;;1.22;51.87;101036.84;5399464;32;34949;-78
2023/01/30 00:39:43;;;;;;;;;;;;;;;1.33;51.78;101031.78;5419893;32;44478;-75
2023/01/30 00:49:29;;;;;;;;;;;;;;;0.37;53.74;101036.78;5418153;32;35167;-76
2023/01/30 00:52:32;;;;;;;;;;;;;;;1.13;52.12;101026.41;5402259;32;33224;-75
2023/01/30 00:55:34;;;;;;;;;;;;;;;1.26;51.89;101022.22;5419901;32;34541;-76
2023/01/30 00:58:36;;;;;;;;;;;;;;;0.43;53.50;101029.09;5400030;32;35145;-79
2023/01/30 01:01:38;;;;;;;;;;;;;;;1.22;51.81;101021.31;5417082;32;33661;-78
2023/01/30 01:04:43;;;;;;;;;;;;;;;0.74;52.90;101014.81;5403007;32;34583;-79
2023/01/30 01:07:45;;;;;;;;;;;;;;;1.14;51.97;101011.75;5391618;32;45139;-78
2023/01/30 01:10:47;;;;;;;;;;;;;;;1.07;52.30;101016.87;5416861;32;35609;-75
2023/01/30 01:13:53;;;;;;;;;;;;;;;0.47;53.66;101007.59;5381015;32;35096;-75
2023/01/30 01:16:54;;;;;;;;;;;;;;;-0.09;55.19;101018.06;5397393;32;35281;-75
2023/01/30 01:19:56;;;;;;;;;;;;;;;0.54;54.43;101004.22;5390141;32;35665;-76
2023/01/30 01:22:58;;;;;;;;;;;;;;;0.39;53.94;100998.03;5402308;32;35261;-78
2023/01/30 01:26:01;;;;;;;;;;;;;;;-0.06;54.69;100994.00;5404661;32;34408;-76
2023/01/30 01:29:03;;;;;;;;;;;;;;;0.37;54.27;100992.81;5398841;32;34657;-75
2023/01/30 01:32:05;;;;;;;;;;;;;;;0.11;54.93;100996.78;5417157;32;34463;-78
2023/01/30 01:35:07;;;;;;;;;;;;;;;-0.27;55.77;100999.69;5400622;32;35444;-76
2023/01/30 01:38:09;;;;;;;;;;;;;;;0.24;54.44;100978.88;5405010;32;33977;-77
2023/01/30 01:41:12;;;;;;;;;;;;;;;-0.53;56.35;100982.94;5399456;32;34113;-77
2023/01/30 01:44:15;;;;;;;;;;;;;;;-0.28;55.93;100983.34;5391141;32;45223;-79
2023/01/30 01:47:18;;;;;;;;;;;;;;;-0.29;55.48;100981.59;5409031;32;34347;-77
2023/01/30 01:50:22;;;;;;;;;;;;;;;-0.11;54.92;100975.84;5397790;32;35929;-75
2023/01/30 01:53:26;;;;;;;;;;;;;;;-0.37;55.46;100972.03;5417701;32;34706;-77
2023/01/30 01:56:28;;;;;;;;;;;;;;;0.32;53.93;100960.84;5386717;32;34897;-76
2023/01/30 01:59:41;;;;;;;;;;;;;;;-0.07;54.70;100959.50;5416945;32;35830;-76
2023/01/30 02:02:45;;;;;;;;;;;;;;;0.00;54.76;100952.72;5398836;32;45782;-80
2023/01/30 02:05:47;;;;;;;;;;;;;;;-0.94;57.21;100950.47;5399434;32;35378;-78
2023/01/30 02:08:51;;;;;;;;;;;;;;;-0.57;57.03;100945.91;5408970;32;35675;-78
2023/01/30 02:11:54;;;;;;;;;;;;;;;-0.22;56.00;100938.63;5390842;32;35685;-78
2023/01/30 02:14:56;;;;;;;;;;;;;;;-0.43;56.00;100935.78;5389713;32;35130;-76
2023/01/30 02:17:58;;;;;;;;;;;;;;;0.39;54.63;100923.91;5386609;32;35550;-78
2023/01/30 02:21:06;;;;;;;;;;;;;;;0.60;53.33;100915.47;5400700;32;34780;-78
2023/01/30 02:24:27;;;;;;;;;;;;;;;0.72;53.38;100912.16;5397187;32;34880;-79
2023/01/30 02:27:29;;;;;;;;;;;;;;;0.73;53.01;100911.28;5397904;32;34722;-79
2023/01/30 02:30:54;;;;;;;;;;;;;;;0.95;53.04;100909.75;5418912;32;34650;-75
2023/01/30 02:34:15;;;;;;;;;;;;;;;1.22;51.97;100904.78;5386964;32;35245;-76
2023/01/30 02:37:17;;;;;;;;;;;;;;;0.77;52.71;100910.44;5411824;32;44831;-75
2023/01/30 02:40:37;;;;;;;;;;;;;;;1.03;52.35;100885.69;5408792;32;37019;-75
2023/01/30 02:43:58;;;;;;;;;;;;;;;1.21;52.42;100892.69;5378363;32;35966;-79
2023/01/30 02:47:14;;;;;;;;;;;;;;;0.87;53.24;100894.16;5418261;32;35015;-79
2023/01/30 02:50:20;;;;;;;;;;;;;;;1.02;53.21;100876.16;5400443;32;44588;-79
2023/01/30 02:53:22;;;;;;;;;;;;;;;1.49;51.50;100874.75;5404396;32;34993;-76
2023/01/30 02:56:24;;;;;;;;;;;;;;;0.40;53.54;100873.03;5410006;32;36096;-75
2023/01/30 02:59:36;;;;;;;;;;;;;;;1.21;52.08;100858.16;5399706;32;35593;-76
2023/01/30 03:03:06;;;;;;;;;;;;;;;0.43;53.90;100855.81;5417299;32;34248;-77
2023/01/30 03:06:14;;;;;;;;;;;;;;;0.19;54.49;100865.91;5399674;32;34681;-76
2023/01/30 03:09:36;;;;;;;;;;;;;;;0.57;54.24;100852.50;5397568;32;44898;-77
2023/01/30 03:12:40;;;;;;;;;;;;;;;-0.67;57.04;100858.81;5405365;32;33897;-78
2023/01/30 03:15:48;;;;;;;;;;;;;;;0.29;54.82;100860.00;5383188;32;35476;-77
2023/01/30 03:18:50;;;;;;;;;;;;;;;0.51;54.69;100861.06;5403401;32;45336;-80
2023/01/30 03:21:52;;;;;;;;;;;;;;;0.30;55.21;100853.97;5385723;32;35251;-78
2023/01/30 03:24:54;;;;;;;;;;;;;;;-0.06;56.23;100855.31;5390932;32;34945;-75
2023/01/30 03:27:56;;;;;;;;;;;;;;;0.53;55.20;100851.63;5403212;32;35076;-76
2023/01/30 03:30:58;;;;;;;;;;;;;;;0.65;54.11;100848.28;5397189;32;35033;-80
2023/01/30 03:34:00;;;;;;;;;;;;;;;0.42;54.59;100855.81;5418113;32;35445;-79
2023/01/30 03:37:02;;;;;;;;;;;;;;;-0.30;56.80;100842.97;5400428;32;33839;-78
2023/01/30 03:40:05;;;;;;;;;;;;;;;0.19;54.77;100838.38;5419536;32;35299;-76
2023/01/30 03:43:07;;;;;;;;;;;;;;;0.45;55.30;100836.03;5367935;32;33028;-78
2023/01/30 03:46:09;;;;;;;;;;;;;;;0.71;54.75;100832.78;5412654;32;34707;-77
2023/01/30 03:49:11;;;;;;;;;;;;;;;0.96;54.55;100826.94;5408202;32;35379;-77
2023/01/30 03:52:13;;;;;;;;;;;;;;;0.83;54.81;100822.53;5400395;32;43257;-78
2023/01/30 03:55:15;;;;;;;;;;;;;;;0.69;54.86;100831.91;5418416;32;35457;-76
2023/01/30 03:58:18;;;;;;;;;;;;;;;0.88;54.60;100828.59;5400296;32;36218;-78
2023/01/30 04:01:19;;;;;;;;;;;;;;;0.21;56.58;100830.63;5417151;32;35758;-78
2023/01/30 04:04:22;;;;;;;;;;;;;;;0.72;55.02;100826.78;5402957;32;35050;-78
2023/01/30 04:07:24;;;;;;;;;;;;;;;0.28;56.43;100827.25;5408986;32;34956;-78
2023/01/30 04:10:26;;;;;;;;;;;;;;;0.56;55.72;100825.75;5404192;32;34178;-76
2023/01/30 04:13:28;;;;;;;;;;;;;;;0.30;56.21;100816.91;5384863;32;36332;-77
2023/01/30 04:16:29;;;;;;;;;;;;;;;0.62;55.48;100812.00;5406663;32;35516;-78
2023/01/30 04:19:32;;;;;;;;;;;;;;;0.77;54.93;100809.53;5399565;32;35003;-76
2023/01/30 04:22:34;;;;;;;;;;;;;;;0.95;54.38;100804.50;5409077;32;35006;-77
2023/01/30 04:25:35;;;;;;;;;;;;;;;0.50;55.48;100805.88;5384069;32;35021;-78
2023/01/30 04:28:37;;;;;;;;;;;;;;;-0.50;59.28;100805.72;5410486;32;34457;-75
2023/01/30 04:31:39;;;;;;;;;;;;;;;-0.39;59.30;100806.69;5399165;32;34956;-76
2023/01/30 04:34:43;;;;;;;;;;;;;;;0.54;56.93;100792.13;5392695;32;35012;-77
2023/01/30 04:37:45;;;;;;;;;;;;;;;0.57;56.32;100796.44;5403004;32;44676;-77
2023/01/30 04:40:48;;;;;;;;;;;;;;;1.02;54.86;100785.56;5400418;32;34601;-75
2023/01/30 04:43:50;;;;;;;;;;;;;;;0.49;55.33;100782.59;5394973;32;35572;-76
2023/01/30 04:46:52;;;;;;;;;;;;;;;0.12;57.47;100776.22;5401426;32;34717;-78
2023/01/30 04:49:54;;;;;;;;;;;;;;;0.40;57.04;100769.59;5407195;32;35342;-77
2023/01/30 04:52:56;;;;;;;;;;;;;;;1.05;54.63;100762.28;5411271;32;34921;-80
2023/01/30 04:55:58;;;;;;;;;;;;;;;0.64;55.76;100767.19;5401992;32;34980;-75
2023/01/30 04:59:00;;;;;;;;;;;;;;;0.51;56.59;100767.94;5418288;32;32993;-78
2023/01/30 05:02:02;;;;;;;;;;;;;;;0.56;56.32;100773.16;5403699;32;34456;-76
2023/01/30 05:05:04;;;;;;;;;;;;;;;0.43;56.98;100767.03;5418665;32;35407;-78
2023/01/30 05:08:06;;;;;;;;;;;;;;;0.69;56.17;100759.47;5393002;32;34767;-76
2023/01/30 05:11:08;;;;;;;;;;;;;;;0.38;56.73;100763.53;5404114;32;34760;-75
2023/01/30 05:14:10;;;;;;;;;;;;;;;0.62;56.57;100755.97;5395812;32;35082;-77
2023/01/30 05:17:12;;;;;;;;;;;;;;;0.37;57.01;100757.50;5384197;32;36376;-77
2023/01/30 05:20:14;;;;;;;;;;;;;;;0.30;57.67;100758.31;5410293;32;44470;-78
2023/01/30 05:23:16;;;;;;;;;;;;;;;0.44;57.46;100761.84;5388864;32;34178;-75
2023/01/30 05:26:18;;;;;;;;;;;;;;;0.40;57.39;100767.88;5403675;32;34677;-79
2023/01/30 05:29:20;;;;;;;;;;;;;;;-0.12;58.62;100756.19;5403324;32;34948;-78
2023/01/30 05:32:22;;;;;;;;;;;;;;;0.24;58.55;100753.06;5405531;32;34873;-79
2023/01/30 05:35:24;;;;;;;;;;;;;;;0.08;58.99;100753.81;5412033;32;35298;-76
2023/01/30 05:38:26;;;;;;;;;;;;;;;0.68;57.40;100748.25;5399498;32;34709;-75
2023/01/30 05:41:28;;;;;;;;;;;;;;;1.12;55.85;100742.47;5397627;32;34837;-77
2023/01/30 05:44:30;;;;;;;;;;;;;;;1.12;55.65;100736.44;5386625;32;35122;-80
2023/01/30 05:47:32;;;;;;;;;;;;;;;0.85;56.63;100725.09;5419036;32;33185;-75
2023/01/30 05:50:34;;;;;;;;;;;;;;;1.04;55.83;100726.91;5388330;32;33245;-75
2023/01/30 05:53:36;;;;;;;;;;;;;;;1.08;55.99;100731.22;5405321;32;34950;-78
2023/01/30 05:56:38;;;;;;;;;;;;;;;0.95;56.49;100729.44;5412988;32;35252;-78
2023/01/30 05:59:40;;;;;;;;;;;;;;;0.45;57.55;100739.44;5400702;32;35556;-79
2023/01/30 06:02:42;;;;;;;;;;;;;;;0.73;57.40;100735.34;5417905;32;34710;-77
2023/01/30 06:05:43;;;;;;;;;;;;;;;0.93;56.60;100738.94;5395607;32;44827;-79
2023/01/30 06:08:45;;;;;;;;;;;;;;;0.69;57.06;100749.97;5410474;32;34754;-76
2023/01/30 06:11:48;;;;;;;;;;;;;;;0.31;58.37;100747.09;5394516;32;35224;-79
2023/01/30 06:14:49;;;;;;;;;;;;;;;0.48;57.86;100735.19;5376905;32;35090;-75
2023/01/30 06:17:51;;;;;;;;;;;;;;;0.26;58.92;100748.81;5400726;32;34918;-75
2023/01/30 06:20:53;;;;;;;;;;;;;;;0.24;58.80;100735.84;5384718;32;35008;-78
2023/01/30 06:23:55;;;;;;;;;;;;;;;0.29;59.24;100750.53;5407846;32;35180;-78
2023/01/30 06:26:57;;;;;;;;;;;;;;;0.40;58.56;100743.75;5394923;32;34608;-78
2023/01/30 06:29:59;;;;;;;;;;;;;;;0.30;58.78;100747.09;5405026;32;36384;-75
2023/01/30 06:33:01;;;;;;;;;;;;;;;0.33;58.68;100740.25;5394659;32;35474;-78
2023/01/30 06:36:03;;;;;;;;;;;;;;;0.21;59.15;100760.81;5380782;32;35469;-76
2023/01/30 06:39:05;;;;;;;;;;;;;;;0.23;59.08;100751.34;5405376;32;34350;-76
2023/01/30 06:42:07;;;;;;;;;;;;;;;-0.25;60.32;100742.28;5379208;32;36267;-76
2023/01/30 06:45:10;;;;;;;;;;;;;;;0.21;60.01;100735.84;5395734;32;34667;-76
2023/01/30 06:48:11;;;;;;;;;;;;;;;0.51;58.31;100719.66;5392375;32;34184;-71
2023/01/30 06:51:16;;;;;;;;;;;;;;;1.20;68.14;100719.22;5392240;32;44050;-71
2023/01/30 06:54:18;;;;;;;;;;;;;;;1.49;62.14;100719.34;5394679;32;36555;-84
2023/01/30 06:57:20;;;;;;;;;;;;;;;1.67;56.80;100719.34;5390386;32;34359;-84
2023/01/30 07:00:22;;;;;;;;;;;;;;;2.25;54.45;100713.38;5402402;32;34274;-75
2023/01/30 07:03:24;;;;;;;;;;;;;;;1.83;55.09;100722.88;5403214;32;35851;-82
2023/01/30 07:06:27;;;;;;;;;;;;;;;2.20;53.06;100709.94;5409154;32;35406;-75
2023/01/30 07:09:29;;;;;;;;;;;;;;;1.44;55.58;100708.94;5404874;32;37785;-85
2023/01/30 07:12:31;;;;;;;;;;;;;;;1.22;56.65;100712.31;5396725;32;35093;-77
2023/01/30 07:15:32;;;;;;;;;;;;;;;1.07;58.03;100718.28;5379275;32;34550;-78
2023/01/30 07:18:35;;;;;;;;;;;;;;;1.95;55.11;100707.34;5377163;32;34256;-75
2023/01/30 07:21:37;;;;;;;;;;;;;;;1.87;55.23;100711.66;5382183;32;32783;-74
2023/01/30 07:24:41;;;;;;;;;;;;;;;1.78;55.79;100721.97;5392754;32;34341;-77
2023/01/30 07:27:48;;;;;;;;;;;;;;;2.56;52.93;100704.72;5408050;32;44539;-85
2023/01/30 07:30:51;;;;;;;;;;;;;;;1.73;55.57;100703.81;5388130;32;34688;-81
2023/01/30 07:33:53;;;;;;;;;;;;;;;0.83;58.71;100706.06;5407931;32;34841;-74
2023/01/30 07:36:55;;;;;;;;;;;;;;;2.37;54.04;100703.00;5393012;32;34142;-74
2023/01/30 07:39:57;;;;;;;;;;;;;;;2.30;54.38;100701.28;5392471;32;35519;-74
2023/01/30 07:43:03;;;;;;;;;;;;;;;2.24;54.27;100701.28;5398197;32;33926;-74
2023/01/30 07:46:05;;;;;;;;;;;;;;;2.55;53.61;100692.62;5394431;32;35365;-83
2023/01/30 07:49:08;;;;;;;;;;;;;;;2.37;54.36;100690.91;5402364;32;35646;-86
2023/01/30 07:52:10;;;;;;;;;;;;;;;2.44;54.18;100690.03;5393996;32;35294;-81
2023/01/30 07:55:14;;;;;;;;;;;;;;;2.05;55.65;100682.25;5396731;32;43399;-83
2023/01/30 07:58:17;;;;;;;;;;;;;;;2.17;55.61;100684.87;5392731;32;33109;-75
2023/01/30 08:01:19;;;;;;;;;;;;;;;2.24;55.50;100685.72;5397308;32;34878;-80
2023/01/30 08:04:21;;;;;;;;;;;;;;;2.44;55.26;100679.66;5392551;32;34159;-74
2023/01/30 08:07:24;;;;;;;;;;;;;;;2.82;54.09;100685.63;5391843;32;34398;-80
2023/01/30 08:10:26;;;;;;;;;;;;;;;2.84;54.09;100673.53;5393842;32;34181;-85
2023/01/30 08:13:28;;;;;;;;;;;;;;;3.06;53.98;100679.50;5382848;32;35771;-78
2023/01/30 08:16:31;;;;;;;;;;;;;;;3.37;53.20;100662.91;5397533;32;36281;-77
2023/01/30 08:19:33;;;;;;;;;;;;;;;3.31;53.55;100654.28;5389813;32;34243;-83
2023/01/30 08:22:35;;;;;;;;;;;;;;;3.48;52.72;100622.16;5393972;32;34069;-78
2023/01/30 08:25:37;;;;;;;;;;;;;;;2.88;54.17;100612.94;5390573;32;34275;-85
2023/01/30 08:28:41;;;;;;;;;;;;;;;3.48;53.19;100597.91;5396143;32;35599;-75
2023/01/30 08:31:43;;;;;;;;;;;;;;;4.00;51.15;100600.09;5411529;32;45965;-77
2023/01/30 08:34:46;;;;;;;;;;;;;;;3.48;52.43;100611.75;5399985;32;35649;-79
2023/01/30 08:37:48;;;;;;;;;;;;;;;2.28;55.56;100618.28;5405445;32;34183;-79
2023/01/30 08:40:50;;;;;;;;;;;;;;;1.58;57.68;100620.91;5402414;32;35501;-85
2023/01/30 08:43:53;;;;;;;;;;;;;;;2.07;57.79;100626.97;5365800;32;33926;-77
2023/01/30 08:46:54;;;;;;;;;;;;;;;2.16;56.46;100616.56;5416492;32;34315;-81
2023/01/30 08:49:56;;;;;;;;;;;;;;;2.47;56.41;100611.34;5395913;32;34126;-75
2023/01/30 08:53:05;;;;;;;;;;;;;;;2.58;55.81;100609.59;5409567;32;35497;-78
2023/01/30 08:56:07;;;;;;;;;;;;;;;2.85;54.83;100603.44;5396224;32;34414;-78
2023/01/30 08:59:09;;;;;;;;;;;;;;;1.86;58.24;100599.31;5398103;32;34079;-80
2023/01/30 09:02:11;;;;;;;;;;;;;;;1.60;58.34;100604.47;5416448;32;36422;-86
2023/01/30 09:05:14;;;;;;;;;;;;;;;2.93;56.01;100606.00;5376843;32;46136;-87
2023/01/30 09:08:16;;;;;;;;;;;;;;;3.20;55.69;100605.84;5402187;32;37550;-89
2023/01/30 09:11:18;;;;;;;;;;;;;;;3.22;54.95;100593.72;5398411;32;33800;-84
2023/01/30 09:14:22;;;;;;;;;;;;;;;3.74;53.87;100593.37;5403455;32;35044;-76
2023/01/30 09:17:24;;;;;;;;;;;;;;;3.36;54.98;100598.84;5402333;32;34432;-80
2023/01/30 09:20:26;;;;;;;;;;;;;;;3.67;53.91;100591.69;5388105;32;34715;-80
2023/01/30 09:23:29;;;;;;;;;;;;;;;3.68;54.28;100590.81;5417537;32;34276;-82
2023/01/30 09:26:31;;;;;;;;;;;;;;;3.44;54.84;100583.19;5398217;32;35249;-87
2023/01/30 09:29:33;;;;;;;;;;;;;;;3.33;55.00;100579.78;5406032;32;35154;-80
2023/01/30 09:32:36;;;;;;;;;;;;;;;3.60;54.55;100579.59;5402937;32;35308;-77
2023/01/30 09:35:38;;;;;;;;;;;;;;;3.38;55.05;100568.50;5407269;32;34457;-77
2023/01/30 09:38:40;;;;;;;;;;;;;;;3.36;55.31;100569.41;5401452;32;34495;-71
2023/01/30 09:41:51;;;;;;;;;;;;;;;3.60;54.66;100556.19;5380858;32;35279;-70
2023/01/30 09:44:53;;;;;;;;;;;;;;;3.66;54.31;100558.75;5402995;32;34500;-70
2023/01/30 09:47:58;;;;;;;;;;;;;;;3.58;54.38;100547.56;5400263;32;32901;-72
2023/01/30 09:51:10;;;;;;;;;;;;;;;3.46;54.94;100539.84;5411944;32;33081;-80
2023/01/30 09:54:21;;;;;;;;;;;;;;;3.50;54.97;100534.63;5402070;32;43276;-72
2023/01/30 09:57:23;;;;;;;;;;;;;;;3.75;54.47;100524.03;5399719;32;35547;-73
2023/01/30 10:00:25;;;;;;;;;;;;;;;4.01;53.63;100515.97;5403810;32;34361;-74
2023/01/30 10:03:39;;;;;;;;;;;;;;;4.03;53.31;100506.41;5395152;32;34731;-75
2023/01/30 10:06:58;;;;;;;;;;;;;;;3.70;53.93;100508.47;5410011;32;35033;-87
2023/01/30 10:10:10;;;;;;;;;;;;;;;3.61;54.66;100510.31;5391450;32;34144;-78
2023/01/30 10:13:17;;;;;;;;;;;;;;;3.68;54.81;100496.38;5391740;32;34236;-76
2023/01/30 10:16:26;;;;;;;;;;;;;;;3.68;54.57;100497.25;5398173;32;45616;-73
2023/01/30 10:19:28;;;;;;;;;;;;;;;3.43;54.81;100490.53;5396305;32;35110;-77
2023/01/30 10:22:39;;;;;;;;;;;;;;;3.36;55.63;100505.31;5412146;32;35417;-74
2023/01/30 10:26:02;;;;;;;;;;;;;;;3.34;56.10;100495.78;5399078;32;34456;-75
2023/01/30 10:29:04;;;;;;;;;;;;;;;3.43;55.99;100472.34;5397392;32;34259;-77
2023/01/30 10:32:13;;;;;;;;;;;;;;;3.62;55.31;100468.69;5395586;32;37671;-77
2023/01/30 10:35:19;;;;;;;;;;;;;;;3.49;55.74;100462.75;5374744;32;44304;-71
2023/01/30 10:38:25;;;;;;;;;;;;;;;3.30;56.37;100455.13;5416175;32;36666;-69
2023/01/30 10:41:31;;;;;;;;;;;;;;;3.14;57.86;100444.00;5387307;32;34636;-72
2023/01/30 10:44:33;;;;;;;;;;;;;;;3.28;56.73;100426.53;5389344;32;37280;-71
2023/01/30 10:47:48;;;;;;;;;;;;;;;3.34;56.70;100436.87;5403084;32;35131;-67
2023/01/30 10:50:57;;;;;;;;;;;;;;;3.57;55.53;100421.09;5395946;32;44472;-71
2023/01/30 10:54:12;;;;;;;;;;;;;;;3.52;55.93;100412.47;5400383;32;34256;-72
2023/01/30 10:57:20;;;;;;;;;;;;;;;3.57;55.83;100410.69;5398554;32;44490;-73
2023/01/30 11:00:29;;;;;;;;;;;;;;;3.57;55.37;100405.50;5410242;32;34201;-70
2023/01/30 11:03:41;;;;;;;;;;;;;;;3.65;55.30;100389.81;5404927;32;34347;-82
2023/01/30 11:06:43;;;;;;;;;;;;;;;3.69;55.56;100386.31;5383571;32;43275;-87
2023/01/30 11:09:46;;;;;;;;;;;;;;;3.91;54.84;100366.13;5411250;32;34898;-73
2023/01/30 11:12:53;;;;;;;;;;;;;;;3.57;55.52;100360.47;5398516;32;35457;-77
2023/01/30 11:15:56;;;;;;;;;;;;;;;3.99;55.22;100359.97;5403810;32;34279;-73
2023/01/30 11:19:00;;;;;;;;;;;;;;;4.27;54.09;100341.38;5376782;32;35476;-77
2023/01/30 11:22:24;;;;;;;;;;;;;;;3.55;55.71;100351.84;5398340;32;44305;-73
2023/01/30 11:25:26;;;;;;;;;;;;;;;2.91;57.92;100337.75;5408626;32;34105;-75
2023/01/30 11:28:33;;;;;;;;;;;;;;;4.34;54.70;100332.59;5398055;32;33355;-76
2023/01/30 11:31:36;;;;;;;;;;;;;;;4.77;53.45;100330.22;5391047;32;34184;-79
2023/01/30 11:34:42;;;;;;;;;;;;;;;4.93;52.82;100325.59;5390572;32;36211;-73
2023/01/30 11:37:44;;;;;;;;;;;;;;;3.97;54.28;100314.91;5408786;32;34625;-78
2023/01/30 11:40:46;;;;;;;;;;;;;;;4.15;54.49;100305.13;5386868;32;36079;-72
2023/01/30 11:43:49;;;;;;;;;;;;;;;4.19;53.71;100299.88;5374043;32;33292;-73
2023/01/30 11:46:51;;;;;;;;;;;;;;;5.46;51.68;100289.00;5405781;32;34386;-73
2023/01/30 11:49:55;;;;;;;;;;;;;;;5.53;51.47;100288.84;5395451;32;35585;-75
2023/01/30 11:53:20;;;;;;;;;;;;;;;5.10;52.45;100281.88;5404670;32;44787;-75
2023/01/30 11:56:22;;;;;;;;;;;;;;;5.92;50.67;100270.69;5396219;32;34491;-76
2023/01/30 11:59:27;;;;;;;;;;;;;;;5.52;51.36;100278.47;5397522;32;34278;-74
2023/01/30 12:02:32;;;;;;;;;;;;;;;5.27;52.49;100284.16;5413234;32;34358;-72
2023/01/30 12:05:41;;;;;;;;;;;;;;;5.13;52.72;100274.00;5395213;32;34751;-76
2023/01/30 12:08:43;;;;;;;;;;;;;;;4.02;55.67;100278.44;5412326;32;46060;-80
2023/01/30 12:11:45;;;;;;;;;;;;;;;4.52;53.75;100277.69;5402154;32;34538;-79
2023/01/30 12:14:48;;;;;;;;;;;;;;;4.92;53.08;100263.13;5406930;32;35996;-81
2023/01/30 12:18:04;;;;;;;;;;;;;;;4.97;52.93;100262.16;5391346;32;34255;-79
2023/01/30 12:21:24;;;;;;;;;;;;;;;4.69;53.99;100261.75;5394976;32;35095;-79
2023/01/30 12:24:30;;;;;;;;;;;;;;;5.27;53.11;100252.88;5414381;32;34712;-78
2023/01/30 12:27:50;;;;;;;;;;;;;;;4.66;54.98;100243.59;5401485;32;34214;-73
2023/01/30 12:30:57;;;;;;;;;;;;;;;5.22;53.26;100220.88;5408888;32;46373;-82
2023/01/30 12:33:59;;;;;;;;;;;;;;;4.73;54.90;100211.38;5409536;32;34805;-83
2023/01/30 12:37:13;;;;;;;;;;;;;;;4.91;55.09;100196.31;5397055;32;34431;-82
2023/01/30 12:40:16;;;;;;;;;;;;;;;4.76;55.56;100189.59;5407500;32;43264;-75
2023/01/30 12:43:18;;;;;;;;;;;;;;;4.39;56.79;100198.09;5382373;32;35523;-72
2023/01/30 12:46:29;;;;;;;;;;;;;;;4.29;57.08;100196.50;5414141;32;34280;-78
2023/01/30 12:49:35;;;;;;;;;;;;;;;3.98;57.89;100190.94;5400146;32;34411;-73
2023/01/30 12:52:49;;;;;;;;;;;;;;;3.90;58.46;100196.25;5395611;32;35776;-79
2023/01/30 12:55:52;;;;;;;;;;;;;;;3.95;58.30;100191.00;5421158;32;44610;-84
2023/01/30 12:58:57;;;;;;;;;;;;;;;3.80;59.16;100207.69;5404331;32;34431;-77
2023/01/30 13:02:15;;;;;;;;;;;;;;;4.19;58.11;100213.16;5406509;32;35333;-75
2023/01/30 13:05:23;;;;;;;;;;;;;;;3.76;58.85;100190.41;5393104;32;45028;-74
2023/01/30 13:08:34;;;;;;;;;;;;;;;3.84;58.76;100179.87;5393476;32;34368;-76
2023/01/30 13:11:55;;;;;;;;;;;;;;;3.92;58.83;100180.63;5412802;32;34514;-75
2023/01/30 13:15:10;;;;;;;;;;;;;;;3.99;58.74;100167.53;5396650;32;35409;-75
2023/01/30 13:18:15;;;;;;;;;;;;;;;3.69;59.48;100168.84;5409534;32;44404;-77
2023/01/30 13:21:30;;;;;;;;;;;;;;;4.17;58.32;100145.53;5398620;32;33025;-77
2023/01/30 13:24:32;;;;;;;;;;;;;;;3.55;59.47;100139.59;5404530;32;35035;-73
2023/01/30 13:27:35;;;;;;;;;;;;;;;3.67;59.58;100135.94;5411911;32;35581;-72
2023/01/30 13:30:37;;;;;;;;;;;;;;;3.83;58.75;100134.84;5393727;32;34405;-73
2023/01/30 13:33:40;;;;;;;;;;;;;;;3.68;59.22;100138.53;5418919;32;34067;-83
2023/01/30 13:36:46;;;;;;;;;;;;;;;3.67;59.47;100143.72;5401208;32;46018;-77
2023/01/30 13:39:52;;;;;;;;;;;;;;;4.28;57.50;100146.22;5395701;32;35730;-72
2023/01/30 13:42:59;;;;;;;;;;;;;;;4.24;57.03;100139.34;5389654;32;34474;-81
2023/01/30 13:46:02;;;;;;;;;;;;;;;4.26;57.40;100140.19;5391015;32;34279;-73
2023/01/30 13:49:16;;;;;;;;;;;;;;;4.50;56.47;100138.03;5411362;32;35158;-81
2023/01/30 13:52:41;;;;;;;;;;;;;;;4.87;55.05;100139.03;5397528;32;44448;-72
2023/01/30 13:56:01;;;;;;;;;;;;;;;4.81;54.87;100133.97;5404081;32;45207;-86
2023/01/30 13:59:09;;;;;;;;;;;;;;;4.83;54.78;100131.31;5412890;32;34507;-71
2023/01/30 14:02:18;;;;;;;;;;;;;;;5.12;53.61;100129.00;5400644;32;35421;-81
2023/01/30 14:05:40;;;;;;;;;;;;;;;4.48;54.58;100135.47;5409496;32;43578;-79
2023/01/30 14:08:50;;;;;;;;;;;;;;;4.81;53.44;100112.28;5369851;32;1004167;-85
2023/01/30 14:11:56;;;;;;;;;;;;;;;5.00;53.07;100112.75;5396785;32;34365;-75
2023/01/30 14:15:03;;;;;;;;;;;;;;;5.36;52.23;100111.97;5405193;32;35123;-77
2023/01/30 14:18:06;;;;;;;;;;;;;;;5.55;51.64;100115.03;5400756;32;34063;-76
2023/01/30 14:21:12;;;;;;;;;;;;;;;5.18;52.20;100117.59;5407875;32;34298;-75
2023/01/30 14:24:17;;;;;;;;;;;;;;;5.16;52.33;100109.81;5393766;32;44348;-73
2023/01/30 14:27:25;;;;;;;;;;;;;;;5.15;52.70;100122.84;5403722;32;35437;-71
2023/01/30 14:30:30;;;;;;;;;;;;;;;5.26;52.60;100117.41;5402665;32;34487;-79
2023/01/30 14:33:48;;;;;;;;;;;;;;;4.97;53.76;100133.66;5400387;32;35068;-80
2023/01/30 14:36:50;;;;;;;;;;;;;;;5.42;52.70;100129.25;5413740;32;44578;-88
2023/01/30 14:39:54;;;;;;;;;;;;;;;4.81;54.13;100135.72;5391650;32;35061;-94
2023/01/30 14:43:12;;;;;;;;;;;;;;;4.63;55.36;100139.50;5380137;32;34465;-82
2023/01/30 14:46:17;;;;;;;;;;;;;;;5.34;53.88;100128.53;5387982;32;44846;-81
2023/01/30 14:49:24;;;;;;;;;;;;;;;5.34;54.85;100129.38;5399597;32;34381;-81
2023/01/30 14:52:36;;;;;;;;;;;;;;;5.00;57.05;100138.81;5417480;32;34251;-81
2023/01/30 14:55:38;;;;;;;;;;;;;;;4.89;57.71;100136.41;5391497;32;35381;-81
2023/01/30 14:58:49;;;;;;;;;;;;;;;5.69;55.40;100130.34;5397908;32;34921;-82
2023/01/30 15:01:55;;;;;;;;;;;;;;;5.15;57.16;100135.87;5370211;32;44819;-82
2023/01/30 15:05:02;;;;;;;;;;;;;;;5.47;56.18;100124.75;5401041;32;33105;-83
2023/01/30 15:08:04;;;;;;;;;;;;;;;5.74;55.05;100119.81;5406304;32;36191;-81
2023/01/30 15:11:09;;;;;;;;;;;;;;;5.36;55.42;100126.75;5400757;32;34351;-80
2023/01/30 15:14:22;;;;;;;;;;;;;;;5.19;56.50;100121.06;5411574;32;34372;-81
2023/01/30 15:17:27;;;;;;;;;;;;;;;5.40;55.78;100121.44;5391844;32;34635;-82
2023/01/30 15:20:33;;;;;;;;;;;;;;;5.40;55.61;100131.84;5403809;32;34279;-81
2023/01/30 15:23:44;;;;;;;;;;;;;;;4.79;56.79;100125.31;5401755;32;35133;-81
2023/01/30 15:27:05;;;;;;;;;;;;;;;4.91;57.21;100133.78;5400795;32;46369;-82
2023/01/30 15:30:15;;;;;;;;;;;;;;;4.79;57.13;100124.47;5410731;32;34397;-81
2023/01/30 15:33:19;;;;;;;;;;;;;;;5.23;56.29;100120.09;5381235;32;44689;-82
2023/01/30 15:36:32;;;;;;;;;;;;;;;5.63;55.03;100115.72;5393911;32;35409;-80
2023/01/30 15:39:34;;;;;;;;;;;;;;;4.63;57.24;100131.69;5409459;32;35951;-81
2023/01/30 15:42:36;;;;;;;;;;;;;;;4.78;57.86;100130.56;5382895;32;34263;-80
2023/01/30 15:45:52;;;;;;;;;;;;;;;4.26;58.52;100141.94;5403477;32;36389;-81
2023/01/30 15:49:15;;;;;;;;;;;;;;;3.73;61.61;100154.03;5389096;32;34416;-82
2023/01/30 15:52:18;;;;;;;;;;;;;;;5.01;58.19;100148.34;5413640;32;46060;-80
2023/01/30 15:55:27;;;;;;;;;;;;;;;4.37;60.56;100152.13;5404296;32;34875;-81
2023/01/30 15:58:29;;;;;;;;;;;;;;;5.08;58.19;100129.06;5391600;32;34313;-81
2023/01/30 16:01:32;;;;;;;;;;;;;;;5.10;58.25;100133.38;5412149;32;35189;-82
2023/01/30 16:04:34;;;;;;;;;;;;;;;5.03;58.52;100130.94;5402486;32;36722;-81
2023/01/30 16:07:36;;;;;;;;;;;;;;;5.00;59.07;100147.47;5415918;32;35244;-80